Time;durP1;ratioP1;P1;durP2;ratioP2;P2;SDS_P1;SDS_P2;PMS_P1;PMS_P2;Temp;Humidity;BMP_temperature;BMP_pressure;BME280_temperature;BME280_humidity;BME280_pressure;Samples;Min_cycle;Max_cycle;Signal;HPM_P1;HPM_P2
2023/09/19 05:30:38;;;;;;;;;;;;;;;12.40;87.27;100671.70;109030;1272;23505;-46
2023/09/19 05:33:05;;;;;;;;;;;;;;;12.54;86.51;100666.43;109279;1269;22839;-55
2023/09/19 05:35:36;;;;;;;;;;;;;;;12.68;85.84;100668.85;108880;1269;22531;-52
2023/09/19 05:38:09;;;;;;;;;;;;;;;12.81;84.93;100669.68;108886;1270;22505;-53
2023/09/19 05:40:40;;;;;;;;;;;;;;;12.95;84.66;100674.02;109735;1269;22957;-53
2023/09/19 05:43:10;;;;;;;;;;;;;;;13.10;83.94;100673.44;109216;1264;23313;-54
2023/09/19 05:45:48;;;;;;;;;;;;;;;13.29;82.98;100670.05;108996;1270;23333;-55
2023/09/19 05:48:18;;;;;;;;;;;;;;;13.46;82.28;100672.05;109107;1270;22541;-54
2023/09/19 05:50:57;;;;;;;;;;;;;;;13.64;81.72;100672.29;109030;1272;22660;-51
2023/09/19 05:53:24;;;;;;;;;;;;;;;13.80;81.42;100674.48;109758;1266;22492;-46
2023/09/19 05:55:53;;;;;;;;;;;;;;;13.98;81.13;100670.29;109877;1271;22483;-54
2023/09/19 05:58:20;;;;;;;;;;;;;;;14.16;80.84;100671.73;109626;1267;22487;-48
2023/09/19 06:00:49;;;;;;;;;;;;;;;14.33;80.32;100668.59;109402;1266;22497;-47
2023/09/19 06:03:17;;;;;;;;;;;;;;;14.52;79.94;100668.24;108760;1270;22520;-54
2023/09/19 06:05:49;;;;;;;;;;;;;;;14.72;79.64;100665.93;109333;1269;22874;-47
2023/09/19 06:08:29;;;;;;;;;;;;;;;14.92;79.22;100663.06;109619;1270;22426;-47
2023/09/19 06:11:55;;;;;;;;;;;;;;;15.17;77.35;100657.31;109685;1275;23020;-47
2023/09/19 06:30:47;;;;;;;;;;;;;;;16.89;69.06;100648.87;109946;1276;23133;-54
2023/09/19 06:33:50;;;;;;;;;;;;;;;17.12;68.10;100646.98;109691;1270;22496;-47
2023/09/19 06:37:00;;;;;;;;;;;;;;;17.36;66.83;100648.56;109963;1268;186155;-54
2023/09/19 06:39:39;;;;;;;;;;;;;;;17.53;66.31;100646.42;109733;1266;22543;-47
2023/09/19 06:42:06;;;;;;;;;;;;;;;17.70;66.20;100648.16;110121;1266;22531;-54
2023/09/19 06:44:32;;;;;;;;;;;;;;;17.87;66.06;100650.95;110056;1276;22415;-54
2023/09/19 06:47:00;;;;;;;;;;;;;;;18.04;66.05;100650.70;110017;1269;22463;-46
2023/09/19 06:49:28;;;;;;;;;;;;;;;18.23;66.42;100652.70;110073;1264;22575;-46
2023/09/19 06:51:57;;;;;;;;;;;;;;;18.39;66.30;100657.05;109850;1267;22544;-53
2023/09/19 06:54:24;;;;;;;;;;;;;;;18.51;65.82;100650.34;109906;1276;23732;-47
2023/09/19 06:56:51;;;;;;;;;;;;;;;18.67;65.14;100650.99;109473;1265;22948;-46
2023/09/19 06:59:17;;;;;;;;;;;;;;;18.85;64.52;100648.73;109894;1273;23259;-47
2023/09/19 07:01:47;;;;;;;;;;;;;;;19.07;64.22;100647.91;109569;1276;22576;-54
2023/09/19 07:04:14;;;;;;;;;;;;;;;19.30;62.98;100649.01;109962;1276;22439;-55
2023/09/19 07:06:45;;;;;;;;;;;;;;;19.52;61.59;100646.04;109826;1266;22600;-46
2023/09/19 07:09:22;;;;;;;;;;;;;;;19.74;60.57;100646.95;108880;1272;22586;-47
2023/09/19 07:11:51;;;;;;;;;;;;;;;19.95;60.36;100644.30;109577;1269;22594;-47
2023/09/19 07:14:20;;;;;;;;;;;;;;;20.18;59.75;100641.05;109780;1270;23072;-53
2023/09/19 07:16:47;;;;;;;;;;;;;;;20.40;59.15;100637.11;109928;1266;22437;-53
2023/09/19 07:19:15;;;;;;;;;;;;;;;20.61;58.27;100636.54;109414;1269;22519;-45
2023/09/19 07:21:47;;;;;;;;;;;;;;;20.81;56.73;100633.34;109282;1269;22645;-45
2023/09/19 07:24:14;;;;;;;;;;;;;;;20.99;55.93;100637.29;109836;1270;22495;-45
2023/09/19 07:26:40;;;;;;;;;;;;;;;21.18;55.94;100630.71;110070;1263;22960;-45
2023/09/19 07:29:08;;;;;;;;;;;;;;;21.39;55.07;100631.54;110053;1270;23270;-46
2023/09/19 07:31:35;;;;;;;;;;;;;;;21.57;53.30;100633.82;109734;1269;22495;-47
2023/09/19 07:34:04;;;;;;;;;;;;;;;21.76;53.11;100631.47;108501;1275;22498;-46
2023/09/19 07:36:32;;;;;;;;;;;;;;;21.94;52.07;100630.17;109733;1266;23016;-46
2023/09/19 07:39:06;;;;;;;;;;;;;;;22.12;50.74;100627.48;109675;1269;23307;-52
2023/09/19 07:41:49;;;;;;;;;;;;;;;22.31;49.60;100627.72;109780;1269;22809;-54
2023/09/19 07:44:17;;;;;;;;;;;;;;;22.48;47.94;100624.00;109795;1266;22473;-46
2023/09/19 07:46:44;;;;;;;;;;;;;;;22.64;46.76;100624.71;109330;1269;22860;-52
2023/09/19 07:49:12;;;;;;;;;;;;;;;22.77;45.99;100623.06;108885;1264;23338;-54
2023/09/19 07:51:40;;;;;;;;;;;;;;;22.86;45.53;100624.80;110007;1275;22480;-47
2023/09/19 07:54:08;;;;;;;;;;;;;;;22.96;44.64;100623.98;108390;1272;22719;-52
2023/09/19 07:56:34;;;;;;;;;;;;;;;23.07;44.47;100622.41;109672;1276;22622;-44
2023/09/19 07:59:03;;;;;;;;;;;;;;;23.17;43.45;100617.34;109926;1265;23447;-46
2023/09/19 08:01:45;;;;;;;;;;;;;;;23.29;43.91;100612.30;108594;1262;23289;-46
2023/09/19 08:04:15;;;;;;;;;;;;;;;23.44;43.52;100611.97;109367;1259;22601;-48
2023/09/19 08:06:51;;;;;;;;;;;;;;;23.57;42.72;100611.13;109118;1270;22502;-53
2023/09/19 08:09:23;;;;;;;;;;;;;;;23.62;42.65;100607.85;109655;1272;22673;-54
2023/09/19 08:11:55;;;;;;;;;;;;;;;23.68;40.83;100607.21;109812;1276;23211;-47
2023/09/19 08:14:23;;;;;;;;;;;;;;;23.71;39.47;100601.02;108741;1270;22861;-47
2023/09/19 08:16:55;;;;;;;;;;;;;;;23.74;40.07;100603.54;109097;1267;23205;-44
2023/09/19 08:19:28;;;;;;;;;;;;;;;23.82;40.01;100596.92;109276;1270;22491;-53
2023/09/19 08:21:59;;;;;;;;;;;;;;;23.93;39.43;100593.70;109605;1270;23356;-45
2023/09/19 08:24:34;;;;;;;;;;;;;;;24.04;38.94;100592.23;109133;1276;22484;-53
2023/09/19 08:27:04;;;;;;;;;;;;;;;24.06;38.70;100593.91;109969;1264;22900;-45
2023/09/19 08:29:31;;;;;;;;;;;;;;;24.11;38.26;100591.33;109878;1267;22491;-54
2023/09/19 08:31:59;;;;;;;;;;;;;;;24.21;37.87;100586.73;109740;1270;23340;-46
2023/09/19 08:34:26;;;;;;;;;;;;;;;24.29;37.75;100582.94;110066;1272;22611;-44
2023/09/19 08:37:03;;;;;;;;;;;;;;;24.38;37.02;100578.90;108982;1276;22538;-45
2023/09/19 08:39:37;;;;;;;;;;;;;;;24.49;36.36;100574.75;108573;1270;24177;-46
2023/09/19 08:42:08;;;;;;;;;;;;;;;24.58;35.39;100570.88;109317;1277;23890;-45
2023/09/19 08:44:43;;;;;;;;;;;;;;;24.61;34.77;100568.40;108761;1276;22520;-53
2023/09/19 08:47:15;;;;;;;;;;;;;;;24.66;35.24;100567.60;108295;1272;22500;-45
2023/09/19 08:49:55;;;;;;;;;;;;;;;24.74;34.90;100563.95;109166;1275;22528;-46
2023/09/19 08:52:25;;;;;;;;;;;;;;;24.78;35.18;100557.31;109517;1271;27112;-54
2023/09/19 08:54:55;;;;;;;;;;;;;;;24.82;35.15;100556.54;109250;1272;22909;-54
2023/09/19 08:57:29;;;;;;;;;;;;;;;24.87;34.53;100552.35;109282;1275;23436;-52
2023/09/19 09:00:12;;;;;;;;;;;;;;;24.85;34.41;100552.85;109374;1276;23440;-45
2023/09/19 09:02:40;;;;;;;;;;;;;;;24.81;34.97;100547.88;109901;1272;22482;-52
2023/09/19 09:05:10;;;;;;;;;;;;;;;24.85;34.58;100546.09;109757;1270;22508;-46
2023/09/19 09:07:39;;;;;;;;;;;;;;;24.86;34.67;100542.23;109501;1273;22974;-46
2023/09/19 09:10:09;;;;;;;;;;;;;;;24.92;35.01;100538.36;109124;1272;22511;-53
2023/09/19 09:12:39;;;;;;;;;;;;;;;25.01;34.92;100539.28;109522;1260;23117;-52
2023/09/19 09:15:06;;;;;;;;;;;;;;;25.12;34.87;100540.32;109175;1276;23396;-45
2023/09/19 09:17:33;;;;;;;;;;;;;;;25.23;34.64;100542.00;109178;1262;23091;-45
2023/09/19 09:20:00;;;;;;;;;;;;;;;25.27;33.53;100547.31;109587;1270;22587;-51
2023/09/19 09:22:27;;;;;;;;;;;;;;;25.25;33.17;100540.08;109564;1275;22935;-52
2023/09/19 09:24:54;;;;;;;;;;;;;;;25.22;33.16;100538.48;109322;1269;22509;-53
2023/09/19 09:27:23;;;;;;;;;;;;;;;25.20;33.05;100541.28;109352;1276;22493;-53
2023/09/19 09:29:51;;;;;;;;;;;;;;;25.22;31.97;100539.92;109822;1276;23246;-45
2023/09/19 09:32:19;;;;;;;;;;;;;;;25.18;32.35;100539.80;109652;1270;22591;-54
2023/09/19 09:34:56;;;;;;;;;;;;;;;25.20;32.61;100539.27;110020;1276;22540;-49
2023/09/19 09:37:30;;;;;;;;;;;;;;;25.27;32.78;100543.93;109871;1270;24085;-53
2023/09/19 09:39:58;;;;;;;;;;;;;;;25.31;32.17;100536.88;110063;1273;22488;-54
2023/09/19 09:42:35;;;;;;;;;;;;;;;25.33;32.46;100532.64;109195;1275;22535;-46
2023/09/19 09:48:14;;;;;;;;;;;;;;;25.52;32.41;100532.44;109514;1270;22531;-45
2023/09/19 09:53:21;;;;;;;;;;;;;;;25.63;32.19;100520.02;109402;1269;22611;-56
2023/09/19 09:56:07;;;;;;;;;;;;;;;25.66;31.94;100517.36;108970;1271;22477;-46
2023/09/19 09:58:40;;;;;;;;;;;;;;;25.65;32.12;100519.55;109133;1272;23188;-47
2023/09/19 10:01:15;;;;;;;;;;;;;;;25.69;32.22;100503.97;109672;1268;22524;-48
2023/09/19 10:03:48;;;;;;;;;;;;;;;25.76;32.04;100503.06;109354;1273;22718;-46
2023/09/19 10:06:25;;;;;;;;;;;;;;;25.80;31.53;100499.42;108881;1262;23400;-54
2023/09/19 10:09:19;;;;;;;;;;;;;;;25.83;31.62;100495.82;109281;1272;22498;-55
2023/09/19 10:12:08;;;;;;;;;;;;;;;26.02;31.36;100486.46;109095;1275;22481;-54
2023/09/19 10:14:38;;;;;;;;;;;;;;;26.33;31.03;100482.23;108947;1262;23874;-55
2023/09/19 10:17:09;;;;;;;;;;;;;;;26.68;30.81;100476.25;109252;1269;22509;-45
2023/09/19 10:19:36;;;;;;;;;;;;;;;27.00;30.23;100478.68;109675;1272;22935;-56
2023/09/19 10:22:05;;;;;;;;;;;;;;;27.24;29.31;100478.19;109184;1269;23095;-57
2023/09/19 10:24:33;;;;;;;;;;;;;;;27.40;28.85;100473.17;109034;1273;22505;-57
2023/09/19 10:27:01;;;;;;;;;;;;;;;27.69;28.58;100473.70;109726;1270;22490;-46
2023/09/19 10:29:35;;;;;;;;;;;;;;;28.04;28.10;100469.52;109828;1272;22453;-46
2023/09/19 10:32:05;;;;;;;;;;;;;;;28.33;27.39;100466.23;109658;1277;22459;-55
2023/09/19 10:34:35;;;;;;;;;;;;;;;28.54;28.00;100457.52;109443;1276;22553;-46
2023/09/19 10:37:09;;;;;;;;;;;;;;;28.85;27.09;100461.42;108886;1269;23025;-47
2023/09/19 10:39:45;;;;;;;;;;;;;;;29.06;26.55;100455.72;109259;1273;22550;-55
2023/09/19 10:42:17;;;;;;;;;;;;;;;29.26;26.70;100449.69;109490;1276;22520;-55
2023/09/19 10:44:45;;;;;;;;;;;;;;;29.65;27.40;100442.28;109785;1277;22525;-57
2023/09/19 10:47:14;;;;;;;;;;;;;;;30.15;26.54;100443.05;109439;1275;22552;-57
2023/09/19 10:49:47;;;;;;;;;;;;;;;30.63;24.99;100442.44;109575;1276;22957;-56
2023/09/19 10:52:19;;;;;;;;;;;;;;;30.96;24.79;100435.76;109478;1273;23413;-56
2023/09/19 10:54:48;;;;;;;;;;;;;;;31.20;24.17;100435.73;110050;1270;22441;-57
2023/09/19 10:57:18;;;;;;;;;;;;;;;31.41;23.25;100433.61;110129;1277;22491;-49
2023/09/19 11:00:21;;;;;;;;;;;;;;;31.49;22.97;100433.99;108469;1273;23236;-47
2023/09/19 11:03:06;;;;;;;;;;;;;;;31.50;22.55;100432.27;109977;1273;22509;-47
2023/09/19 11:05:40;;;;;;;;;;;;;;;31.41;23.09;100427.33;109764;1262;23091;-48
2023/09/19 11:08:12;;;;;;;;;;;;;;;31.56;22.92;100424.99;109728;1270;22680;-57
2023/09/19 11:10:50;;;;;;;;;;;;;;;31.64;22.71;100416.48;109909;1269;23053;-49
2023/09/19 11:13:37;;;;;;;;;;;;;;;31.76;22.54;100415.51;109930;1276;23199;-47
2023/09/19 11:16:04;;;;;;;;;;;;;;;31.75;21.80;100417.59;109845;1270;23611;-49
2023/09/19 11:18:41;;;;;;;;;;;;;;;31.50;21.83;100417.58;109959;1273;23028;-47
2023/09/19 11:28:43;;;;;;;;;;;;;;;29.79;23.63;100403.10;109972;1276;22541;-58
2023/09/19 11:32:00;;;;;;;;;;;;;;;29.21;23.82;100408.25;109861;1276;22442;-57
2023/09/19 11:35:24;;;;;;;;;;;;;;;28.63;24.59;100400.41;109906;1277;22466;-58
2023/09/19 11:46:54;;;;;;;;;;;;;;;27.81;25.73;100384.04;109944;1277;22458;-48
2023/09/19 11:50:00;;;;;;;;;;;;;;;27.63;25.86;100389.77;109921;1277;23441;-49
2023/09/19 11:52:29;;;;;;;;;;;;;;;27.47;25.95;100384.91;109875;1278;22521;-49
2023/09/19 11:54:57;;;;;;;;;;;;;;;27.41;26.02;100380.13;109869;1271;22448;-48
2023/09/19 11:57:24;;;;;;;;;;;;;;;27.36;26.10;100374.94;109451;1272;22559;-58
2023/09/19 11:59:53;;;;;;;;;;;;;;;27.29;26.29;100372.54;109972;1276;22915;-48
2023/09/19 12:02:28;;;;;;;;;;;;;;;27.25;26.32;100372.33;110050;1271;23234;-52
2023/09/19 12:04:55;;;;;;;;;;;;;;;27.20;26.03;100371.05;109935;1276;22499;-58
2023/09/19 12:07:22;;;;;;;;;;;;;;;27.13;26.02;100368.80;110090;1275;22437;-57
2023/09/19 12:09:49;;;;;;;;;;;;;;;27.08;26.40;100369.15;109894;1277;23368;-58
2023/09/19 12:12:23;;;;;;;;;;;;;;;27.07;26.62;100366.55;109880;1277;22450;-47
2023/09/19 12:14:50;;;;;;;;;;;;;;;27.06;26.78;100366.25;109963;1271;22431;-48
2023/09/19 12:17:24;;;;;;;;;;;;;;;27.01;26.98;100365.27;109995;1277;22491;-58
2023/09/19 12:19:51;;;;;;;;;;;;;;;26.92;27.01;100365.77;109886;1276;22428;-49
2023/09/19 12:22:20;;;;;;;;;;;;;;;26.84;27.21;100355.90;110041;1277;22451;-48
2023/09/19 12:24:47;;;;;;;;;;;;;;;26.83;27.44;100348.83;109766;1278;23031;-57
2023/09/19 12:27:14;;;;;;;;;;;;;;;26.91;27.57;100349.53;109908;1271;23257;-47
2023/09/19 12:29:45;;;;;;;;;;;;;;;26.96;27.34;100347.20;109912;1278;23774;-47
2023/09/19 12:32:12;;;;;;;;;;;;;;;26.92;27.35;100343.69;109912;1275;22438;-47
2023/09/19 12:34:42;;;;;;;;;;;;;;;26.85;27.21;100340.95;109927;1277;23170;-56
2023/09/19 12:37:13;;;;;;;;;;;;;;;26.78;27.40;100337.65;109982;1277;22428;-47
2023/09/19 12:39:44;;;;;;;;;;;;;;;26.78;27.28;100336.60;110004;1274;23303;-57
2023/09/19 12:42:10;;;;;;;;;;;;;;;26.84;27.38;100336.20;110085;1269;22545;-58
2023/09/19 12:44:38;;;;;;;;;;;;;;;26.92;27.41;100334.02;110126;1276;22417;-48
2023/09/19 12:47:09;;;;;;;;;;;;;;;26.98;27.34;100326.67;110059;1278;23031;-46
2023/09/19 12:49:36;;;;;;;;;;;;;;;26.99;27.58;100322.69;110147;1277;22544;-48
2023/09/19 12:52:02;;;;;;;;;;;;;;;26.95;27.32;100319.02;110185;1276;23026;-41
2023/09/19 12:54:39;;;;;;;;;;;;;;;26.89;27.86;100322.46;110107;1272;22477;-49
2023/09/19 12:57:06;;;;;;;;;;;;;;;26.90;27.69;100318.83;110156;1273;22994;-49
2023/09/19 12:59:35;;;;;;;;;;;;;;;26.94;27.47;100317.44;110187;1267;22429;-43
2023/09/19 13:02:13;;;;;;;;;;;;;;;26.99;27.37;100315.14;110215;1274;23455;-46
2023/09/19 13:04:42;;;;;;;;;;;;;;;27.03;27.12;100309.48;110242;1274;22517;-46
2023/09/19 13:07:10;;;;;;;;;;;;;;;27.13;27.06;100309.96;110144;1278;22508;-47
2023/09/19 13:09:39;;;;;;;;;;;;;;;27.40;27.02;100302.83;108491;1270;24356;-52
2023/09/19 13:12:28;;;;;;;;;;;;;;;27.67;26.79;100298.09;108531;1277;22521;-48
2023/09/19 13:15:13;;;;;;;;;;;;;;;27.74;26.40;100292.61;108258;1276;22504;-60
2023/09/19 13:17:46;;;;;;;;;;;;;;;27.71;26.14;100292.83;110419;1267;22457;-45
2023/09/19 13:20:27;;;;;;;;;;;;;;;27.60;26.05;100289.41;110376;1276;22461;-46
2023/09/19 13:23:06;;;;;;;;;;;;;;;27.48;26.05;100284.02;110402;1276;23240;-46
2023/09/19 13:25:33;;;;;;;;;;;;;;;27.42;26.26;100280.32;109656;1276;22562;-46
2023/09/19 13:28:04;;;;;;;;;;;;;;;27.38;26.33;100278.51;110362;1274;22526;-52
2023/09/19 13:30:34;;;;;;;;;;;;;;;27.35;26.59;100278.17;110387;1276;22561;-46
2023/09/19 13:33:09;;;;;;;;;;;;;;;27.29;26.73;100274.40;109000;1276;23329;-46
2023/09/19 13:35:38;;;;;;;;;;;;;;;27.23;26.88;100275.98;107635;1275;23431;-46
2023/09/19 13:38:06;;;;;;;;;;;;;;;27.12;26.85;100272.76;107499;1276;25311;-46
2023/09/19 13:40:34;;;;;;;;;;;;;;;27.02;27.08;100271.45;108448;1276;22698;-52
2023/09/19 13:43:01;;;;;;;;;;;;;;;26.95;27.15;100272.66;110173;1278;23694;-46
2023/09/19 13:45:30;;;;;;;;;;;;;;;26.88;27.18;100267.92;110218;1277;23164;-52
2023/09/19 13:47:58;;;;;;;;;;;;;;;26.77;27.29;100268.68;110232;1278;22435;-46
2023/09/19 13:50:28;;;;;;;;;;;;;;;26.72;27.45;100266.36;110257;1267;22468;-52
2023/09/19 13:52:55;;;;;;;;;;;;;;;26.69;27.54;100266.75;110379;1276;22433;-46
2023/09/19 13:55:22;;;;;;;;;;;;;;;26.67;27.77;100269.20;110182;1276;23254;-46
2023/09/19 13:57:58;;;;;;;;;;;;;;;26.61;27.74;100265.66;107778;1278;22507;-47
2023/09/19 14:00:24;;;;;;;;;;;;;;;26.45;27.97;100260.64;108601;1264;23632;-47
2023/09/19 14:02:52;;;;;;;;;;;;;;;26.36;28.38;100259.27;109892;1267;22516;-47
2023/09/19 14:05:20;;;;;;;;;;;;;;;26.41;28.46;100260.52;110205;1278;23715;-47
2023/09/19 14:07:47;;;;;;;;;;;;;;;26.46;28.40;100260.60;109769;1277;25478;-47
2023/09/19 14:10:14;;;;;;;;;;;;;;;26.43;28.52;100256.88;109924;1270;22515;-53
2023/09/19 14:12:41;;;;;;;;;;;;;;;26.35;28.82;100259.11;108895;1278;22516;-46
2023/09/19 14:15:08;;;;;;;;;;;;;;;26.27;28.73;100257.36;110082;1270;23260;-46
2023/09/19 14:17:35;;;;;;;;;;;;;;;26.19;28.98;100252.85;110109;1276;24196;-46
2023/09/19 14:20:02;;;;;;;;;;;;;;;26.17;29.13;100252.80;110315;1276;22530;-47
2023/09/19 14:22:31;;;;;;;;;;;;;;;26.23;28.99;100249.73;110341;1276;22421;-53
